Time,TemperatureF,DewpointF,PressureIn,WindDirection,WindDirectionDegrees,WindSpeedMPH,WindSpeedGustMPH,Humidity,HourlyPrecipIn,Conditions,Clouds,dailyrainin,SolarRadiationWatts/m^2,SoftwareType,DateUTC
2013-11-14 00:00:00,29.9,14.0,30.11,SSW,202,6.0,12.0,51,0.00,,,0.00,0,weatherlink.com 1.10,2013-11-14 05:00:00,
2013-11-14 00:15:00,29.9,14.0,30.12,SSW,195,4.0,10.0,51,0.00,,,0.00,0,weatherlink.com 1.10,2013-11-14 05:15:00,
2013-11-14 00:30:00,30.2,15.0,30.10,SSW,205,10.0,11.0,53,0.00,,,0.00,0,weatherlink.com 1.10,2013-11-14 05:30:00,
2013-11-14 00:45:00,30.1,15.0,30.10,SSW,213,7.0,14.0,54,0.00,,,0.00,0,weatherlink.com 1.10,2013-11-14 05:45:00,
2013-11-14 01:00:00,29.9,15.0,30.10,SW,215,7.0,14.0,55,0.00,,,0.00,0,weatherlink.com 1.10,2013-11-14 06:00:00,
2013-11-14 01:15:00,29.9,16.0,30.09,SSW,205,8.0,15.0,57,0.00,,,0.00,0,weatherlink.com 1.10,2013-11-14 06:15:00,
2013-11-14 01:30:00,29.8,16.0,30.09,SSW,198,8.0,14.0,57,0.00,,,0.00,0,weatherlink.com 1.10,2013-11-14 06:30:00,
2013-11-14 01:45:00,29.7,16.0,30.09,SSW,212,6.0,11.0,58,0.00,,,0.00,0,weatherlink.com 1.10,2013-11-14 06:45:00,
2013-11-14 02:00:00,29.9,17.0,30.08,SSW,204,7.0,10.0,58,0.00,,,0.00,0,weatherlink.com 1.10,2013-11-14 07:00:00,
2013-11-14 02:15:00,30.0,17.0,30.09,SW,218,8.0,13.0,58,0.00,,,0.00,0,weatherlink.com 1.10,2013-11-14 07:15:00,
2013-11-14 02:30:00,29.9,17.0,30.08,SW,222,9.0,13.0,59,0.00,,,0.00,0,weatherlink.com 1.10,2013-11-14 07:30:00,
2013-11-14 02:45:00,30.1,17.0,30.06,SSW,198,5.0,12.0,59,0.00,,,0.00,0,weatherlink.com 1.10,2013-11-14 07:45:00,
2013-11-14 03:00:00,30.3,17.0,30.06,South,191,6.0,12.0,59,0.00,,,0.00,0,weatherlink.com 1.10,2013-11-14 08:00:00,
2013-11-14 03:15:00,30.7,18.0,30.05,SSW,196,7.0,12.0,60,0.00,,,0.00,0,weatherlink.com 1.10,2013-11-14 08:15:00,
2013-11-14 03:30:00,30.8,18.0,30.05,SW,218,6.0,11.0,59,0.00,,,0.00,0,weatherlink.com 1.10,2013-11-14 08:30:00,
2013-11-14 03:45:00,30.9,18.0,30.05,SSW,210,8.0,15.0,59,0.00,,,0.00,0,weatherlink.com 1.10,2013-11-14 08:45:00,
2013-11-14 04:00:00,31.1,18.0,30.04,SW,214,5.0,10.0,59,0.00,,,0.00,0,weatherlink.com 1.10,2013-11-14 09:00:00,
2013-11-14 04:15:00,31.1,18.0,30.04,SSW,208,4.0,11.0,59,0.00,,,0.00,0,weatherlink.com 1.10,2013-11-14 09:15:00,
2013-11-14 04:30:00,31.2,18.0,30.03,South,174,7.0,12.0,59,0.00,,,0.00,0,weatherlink.com 1.10,2013-11-14 09:30:00,
2013-11-14 04:45:00,31.5,19.0,30.03,SSW,195,5.0,12.0,59,0.00,,,0.00,0,weatherlink.com 1.10,2013-11-14 09:45:00,
2013-11-14 05:00:00,31.9,18.0,30.03,SW,229,4.0,12.0,58,0.00,,,0.00,0,weatherlink.com 1.10,2013-11-14 10:00:00,
2013-11-14 05:15:00,32.1,19.0,30.03,SW,233,4.0,15.0,58,0.00,,,0.00,0,weatherlink.com 1.10,2013-11-14 10:15:00,
2013-11-14 05:30:00,32.3,19.0,30.03,SW,214,8.0,12.0,58,0.00,,,0.00,0,weatherlink.com 1.10,2013-11-14 10:30:00,
2013-11-14 05:45:00,32.4,19.0,30.03,SW,220,6.0,10.0,58,0.00,,,0.00,0,weatherlink.com 1.10,2013-11-14 10:45:00,
2013-11-14 06:00:00,32.5,19.0,30.03,SW,223,5.0,11.0,58,0.00,,,0.00,0,weatherlink.com 1.10,2013-11-14 11:00:00,
2013-11-14 06:15:00,32.8,19.0,30.03,South,185,5.0,10.0,57,0.00,,,0.00,0,weatherlink.com 1.10,2013-11-14 11:15:00,
2013-11-14 06:30:00,33.2,19.0,30.02,SW,234,10.0,17.0,56,0.00,,,0.00,0,weatherlink.com 1.10,2013-11-14 11:30:00,
2013-11-14 06:45:00,33.4,19.0,30.03,SW,232,12.0,15.0,56,0.00,,,0.00,0,weatherlink.com 1.10,2013-11-14 11:45:00,
2013-11-14 07:00:00,33.5,19.0,30.03,SSW,193,6.0,14.0,56,0.00,,,0.00,5,weatherlink.com 1.10,2013-11-14 12:00:00,
2013-11-14 07:16:00,33.6,19.0,30.03,SSW,212,7.0,16.0,56,0.00,,,0.00,25,weatherlink.com 1.10,2013-11-14 12:16:00,
2013-11-14 07:31:00,33.9,20.0,30.03,WSW,238,3.0,16.0,56,0.00,,,0.00,79,weatherlink.com 1.10,2013-11-14 12:31:00,
2013-11-14 07:46:00,34.4,20.0,30.03,WNW,285,7.0,16.0,55,0.00,,,0.00,100,weatherlink.com 1.10,2013-11-14 12:46:00,
2013-11-14 08:01:00,34.8,19.0,30.03,West,274,11.0,18.0,53,0.00,,,0.00,56,weatherlink.com 1.10,2013-11-14 13:01:00,
2013-11-14 08:16:00,35.1,19.0,30.03,WSW,249,8.0,15.0,53,0.00,,,0.00,223,weatherlink.com 1.10,2013-11-14 13:16:00,
2013-11-14 08:31:00,36.1,19.0,30.04,SW,230,6.0,18.0,50,0.00,,,0.00,258,weatherlink.com 1.10,2013-11-14 13:31:00,
2013-11-14 08:46:00,37.0,19.0,30.03,SW,220,5.0,16.0,49,0.00,,,0.00,290,weatherlink.com 1.10,2013-11-14 13:46:00,
2013-11-14 09:01:00,38.0,19.0,30.04,WSW,245,10.0,17.0,47,0.00,,,0.00,322,weatherlink.com 1.10,2013-11-14 14:01:00,
2013-11-14 09:16:00,39.0,19.0,30.04,West,259,6.0,17.0,45,0.00,,,0.00,352,weatherlink.com 1.10,2013-11-14 14:16:00,
2013-11-14 09:31:00,39.9,19.0,30.03,WSW,242,12.0,20.0,44,0.00,,,0.00,378,weatherlink.com 1.10,2013-11-14 14:31:00,
2013-11-14 10:01:00,41.5,21.0,30.03,SSW,201,4.0,15.0,44,0.00,,,0.00,425,weatherlink.com 1.10,2013-11-14 15:01:00,
2013-11-14 10:16:00,42.3,21.0,30.02,SSW,205,6.0,17.0,43,0.00,,,0.00,441,weatherlink.com 1.10,2013-11-14 15:16:00,
2013-11-14 10:46:00,44.2,23.0,30.02,West,270,15.0,21.0,43,0.00,,,0.00,469,weatherlink.com 1.10,2013-11-14 15:46:00,
2013-11-14 11:01:00,44.5,24.0,30.01,WSW,237,10.0,24.0,45,0.00,,,0.00,476,weatherlink.com 1.10,2013-11-14 16:01:00,
2013-11-14 11:16:00,45.0,25.0,30.01,WNW,293,11.0,25.0,46,0.00,,,0.00,482,weatherlink.com 1.10,2013-11-14 16:16:00,
2013-11-14 11:32:00,45.5,25.0,30.00,NW,312,5.0,19.0,45,0.00,,,0.00,482,weatherlink.com 1.10,2013-11-14 16:32:00,
2013-11-14 11:47:00,46.3,26.0,30.01,WNW,292,14.0,21.0,45,0.00,,,0.00,480,weatherlink.com 1.10,2013-11-14 16:47:00,
2013-11-14 12:02:00,46.6,26.0,30.00,WNW,283,3.0,18.0,45,0.00,,,0.00,473,weatherlink.com 1.10,2013-11-14 17:02:00,
2013-11-14 12:17:00,47.0,26.0,30.00,SSW,208,5.0,17.0,45,0.00,,,0.00,464,weatherlink.com 1.10,2013-11-14 17:17:00,
2013-11-14 12:32:00,47.1,27.0,30.00,WNW,287,8.0,19.0,45,0.00,,,0.00,454,weatherlink.com 1.10,2013-11-14 17:32:00,
2013-11-14 12:47:00,48.1,28.0,30.00,West,259,14.0,19.0,45,0.00,,,0.00,436,weatherlink.com 1.10,2013-11-14 17:47:00,
2013-11-14 13:02:00,47.8,28.0,30.00,West,274,13.0,24.0,46,0.00,,,0.00,417,weatherlink.com 1.10,2013-11-14 18:02:00,
2013-11-14 13:17:00,48.2,28.0,30.00,North,359,8.0,17.0,45,0.00,,,0.00,396,weatherlink.com 1.10,2013-11-14 18:17:00,
2013-11-14 13:32:00,47.9,27.0,29.99,West,275,22.0,26.0,45,0.00,,,0.00,371,weatherlink.com 1.10,2013-11-14 18:32:00,
2013-11-14 13:47:00,48.2,28.0,30.00,NNW,337,4.0,19.0,45,0.00,,,0.00,345,weatherlink.com 1.10,2013-11-14 18:47:00,
2013-11-14 14:02:00,48.8,28.0,30.00,West,277,14.0,21.0,45,0.00,,,0.00,316,weatherlink.com 1.10,2013-11-14 19:02:00,
2013-11-14 14:17:00,49.1,28.0,30.00,West,281,8.0,18.0,44,0.00,,,0.00,281,weatherlink.com 1.10,2013-11-14 19:17:00,
2013-11-14 14:32:00,48.9,28.0,30.00,WNW,287,11.0,21.0,45,0.00,,,0.00,241,weatherlink.com 1.10,2013-11-14 19:32:00,
2013-11-14 14:47:00,49.4,28.0,30.01,SW,214,4.0,15.0,44,0.00,,,0.00,202,weatherlink.com 1.10,2013-11-14 19:47:00,
2013-11-14 15:02:00,49.6,29.0,30.01,WSW,257,8.0,15.0,45,0.00,,,0.00,141,weatherlink.com 1.10,2013-11-14 20:02:00,
2013-11-14 15:17:00,49.2,29.0,30.02,West,272,15.0,16.0,45,0.00,,,0.00,79,weatherlink.com 1.10,2013-11-14 20:17:00,
2013-11-14 15:47:00,48.1,29.0,30.02,West,269,8.0,15.0,47,0.00,,,0.00,19,weatherlink.com 1.10,2013-11-14 20:47:00,
2013-11-14 16:02:00,47.6,29.0,30.02,West,276,3.0,8.0,48,0.00,,,0.00,14,weatherlink.com 1.10,2013-11-14 21:02:00,
2013-11-14 16:17:00,47.1,29.0,30.03,West,268,2.0,8.0,49,0.00,,,0.00,5,weatherlink.com 1.10,2013-11-14 21:17:00,
2013-11-14 16:32:00,46.5,29.0,30.03,WSW,243,4.0,8.0,50,0.00,,,0.00,0,weatherlink.com 1.10,2013-11-14 21:32:00,
2013-11-14 16:47:00,45.9,29.0,30.04,SW,214,3.0,5.0,51,0.00,,,0.00,0,weatherlink.com 1.10,2013-11-14 21:47:00,
2013-11-14 17:02:00,45.3,28.0,30.04,WSW,249,4.0,7.0,52,0.00,,,0.00,0,weatherlink.com 1.10,2013-11-14 22:02:00,
2013-11-14 17:17:00,44.9,29.0,30.05,WSW,258,4.0,8.0,53,0.00,,,0.00,0,weatherlink.com 1.10,2013-11-14 22:17:00,
2013-11-14 17:32:00,44.3,28.0,30.05,SW,226,3.0,4.0,53,0.00,,,0.00,0,weatherlink.com 1.10,2013-11-14 22:32:00,
2013-11-14 17:47:00,43.5,28.0,30.05,SW,223,3.0,4.0,55,0.00,,,0.00,0,weatherlink.com 1.10,2013-11-14 22:47:00,
2013-11-14 18:02:00,43.1,28.0,30.05,WSW,252,3.0,4.0,56,0.00,,,0.00,0,weatherlink.com 1.10,2013-11-14 23:02:00,
2013-11-14 18:17:00,43.3,28.0,30.06,WSW,243,1.0,3.0,56,0.00,,,0.00,0,weatherlink.com 1.10,2013-11-14 23:17:00,
2013-11-14 18:32:00,43.6,28.0,30.06,WSW,251,2.0,4.0,55,0.00,,,0.00,0,weatherlink.com 1.10,2013-11-14 23:32:00,
2013-11-14 18:47:00,42.5,28.0,30.06,SW,233,2.0,4.0,57,0.00,,,0.00,0,weatherlink.com 1.10,2013-11-14 23:47:00,
2013-11-14 19:02:00,41.4,28.0,30.07,WSW,239,2.0,2.0,59,0.00,,,0.00,0,weatherlink.com 1.10,2013-11-15 00:02:00,
2013-11-14 19:17:00,40.1,28.0,30.06,WSW,241,3.0,3.0,62,0.00,,,0.00,0,weatherlink.com 1.10,2013-11-15 00:17:00,
2013-11-14 19:32:00,39.8,28.0,30.07,SW,224,1.0,3.0,62,0.00,,,0.00,0,weatherlink.com 1.10,2013-11-15 00:32:00,
2013-11-14 19:47:00,38.2,28.0,30.07,West,275,2.0,3.0,66,0.00,,,0.00,0,weatherlink.com 1.10,2013-11-15 00:47:00,
2013-11-14 20:02:00,37.1,28.0,30.07,West,277,1.0,3.0,69,0.00,,,0.00,0,weatherlink.com 1.10,2013-11-15 01:02:00,
2013-11-14 20:17:00,37.7,28.0,30.07,West,271,1.0,2.0,67,0.00,,,0.00,0,weatherlink.com 1.10,2013-11-15 01:17:00,
2013-11-14 20:32:00,38.0,27.0,30.07,WNW,282,2.0,3.0,66,0.00,,,0.00,0,weatherlink.com 1.10,2013-11-15 01:32:00,
2013-11-14 20:47:00,39.1,28.0,30.08,WSW,251,3.0,4.0,64,0.00,,,0.00,0,weatherlink.com 1.10,2013-11-15 01:47:00,
2013-11-14 21:02:00,38.9,27.0,30.08,WSW,253,3.0,4.0,63,0.00,,,0.00,0,weatherlink.com 1.10,2013-11-15 02:02:00,
2013-11-14 21:17:00,37.1,27.0,30.08,West,270,2.0,3.0,66,0.00,,,0.00,0,weatherlink.com 1.10,2013-11-15 02:17:00,
2013-11-14 21:32:00,36.8,26.0,30.08,WSW,251,2.0,3.0,66,0.00,,,0.00,0,weatherlink.com 1.10,2013-11-15 02:32:00,
2013-11-14 21:47:00,36.6,26.0,30.08,WSW,243,2.0,4.0,66,0.00,,,0.00,0,weatherlink.com 1.10,2013-11-15 02:47:00,
2013-11-14 22:02:00,36.7,26.0,30.07,WSW,256,2.0,4.0,65,0.00,,,0.00,0,weatherlink.com 1.10,2013-11-15 03:02:00,
2013-11-14 22:17:00,37.2,26.0,30.07,WSW,245,2.0,4.0,63,0.00,,,0.00,0,weatherlink.com 1.10,2013-11-15 03:17:00,
2013-11-14 22:32:00,37.2,26.0,30.07,SW,228,4.0,5.0,63,0.00,,,0.00,0,weatherlink.com 1.10,2013-11-15 03:32:00,
2013-11-14 22:47:00,37.7,25.0,30.07,SW,217,3.0,5.0,61,0.00,,,0.00,0,weatherlink.com 1.10,2013-11-15 03:47:00,
2013-11-14 23:02:00,37.5,25.0,30.08,WSW,244,3.0,6.0,61,0.00,,,0.00,0,weatherlink.com 1.10,2013-11-15 04:02:00,
2013-11-14 23:17:00,37.8,24.0,30.08,SSW,211,7.0,9.0,59,0.00,,,0.00,0,weatherlink.com 1.10,2013-11-15 04:17:00,
2013-11-14 23:32:00,38.8,24.0,30.08,SW,217,5.0,9.0,56,0.00,,,0.00,0,weatherlink.com 1.10,2013-11-15 04:32:00,
2013-11-14 23:47:00,39.2,24.0,30.09,SW,214,4.0,10.0,54,0.00,,,0.00,0,weatherlink.com 1.10,2013-11-15 04:47:00,